Archival Weather

Vermilion Rgnl

Danville, Illinois (KDNV)

Report from: Saturday, April 13, 2024 12:35 PM CDT
Current time: Sunday, July 14, 2024 5:51 AM CDT

Current weather – Weather history – Daily summaries
Weather forecast

Temperature18.4°C (65.1°F)
Dew point3.4°C (38.1°F)
Winds 9 kts (4.6 m/s, 10.4 mph) West (270°)
Wind gusts 14 kts (7.2 m/s, 16.1 mph)
Visibility10 mi. (16.1 km)
Clouds Sky clear
Altimeter30.14 in.Hg (1021 mB)
Relative humidity37 %
Density altitude268 ft. (82 m)
Remarks Fully automated report
Automated weather observing station with precipitation discriminator
Flight conditions Visual Meteorological Conditions
Raw dataKDNV 131735Z AUTO 27009G14KT 10SM CLR 18/03 A3014 RMK AO2 T01840034
An error has occurred. This application may no longer respond until reloaded. Reload 🗙